Wauregan, Connecticut
Current Conditions -  °F | °C
As of 12:52 AM on Monday 20 Oct 2014 (Local Time) from KIJD Reporting Station
Clear Clear  
Wind Chill: 33°   Ceiling: Unl
Heat Index: 37°   Visibility: 10mi
Dew Point: 27°   Wind: 5mph
Humidity: 67%   Direction: 30°NNE
Pressure: 30.02"   Gusts: NA
Location:  41.75°N, 71.91°W
Report Text: KIJD 200452Z AUTO 03004KT 10SM CLR 03/M03 A3002 RMK AO2 SLP166 T00281028 401330028
Loading
Personal Weather Stations






























Interactive Weather Map New forecast layout! Learn more

10-Day Weather Forecast

Advertisements
Track Severe Weather on mobile